Time;durP1;ratioP1;P1;durP2;ratioP2;P2;SDS_P1;SDS_P2;PMS_P1;PMS_P2;Temp;Humidity;BMP_temperature;BMP_pressure;BME280_temperature;BME280_humidity;BME280_pressure;Samples;Min_cycle;Max_cycle;Signal;HPM_P1;HPM_P2
2022/09/21 00:01:27;;;;;;;11.27;3.90;;;;;;;7.68;85.84;96999.22;5012656;28;20283;-77
2022/09/21 00:03:54;;;;;;;11.65;3.83;;;;;;;7.67;86.08;96995.69;5013339;28;20049;-76
2022/09/21 00:06:22;;;;;;;12.98;4.20;;;;;;;7.65;85.99;96994.38;5012478;28;20378;-76
2022/09/21 00:08:49;;;;;;;14.23;4.40;;;;;;;7.66;85.68;97001.41;5013389;28;20049;-76
2022/09/21 00:11:19;;;;;;;11.68;3.58;;;;;;;7.63;85.74;96997.38;5013259;28;20049;-77
2022/09/21 00:13:49;;;;;;;12.60;3.80;;;;;;;7.60;85.75;96992.50;5013659;28;20135;-77
2022/09/21 00:16:16;;;;;;;14.25;4.38;;;;;;;7.56;85.96;96997.66;5013401;28;20141;-77
2022/09/21 00:18:46;;;;;;;22.55;5.00;;;;;;;7.53;85.77;96992.84;5010774;28;20042;-76
2022/09/21 00:21:14;;;;;;;10.73;3.50;;;;;;;7.44;85.97;96989.09;5012714;28;20076;-76
2022/09/21 00:23:43;;;;;;;9.77;3.40;;;;;;;7.38;85.59;96995.66;5012580;28;20052;-76
2022/09/21 00:26:11;;;;;;;11.75;3.65;;;;;;;7.36;85.51;96997.84;5012834;28;20041;-76
2022/09/21 00:28:40;;;;;;;11.05;3.47;;;;;;;7.36;84.98;97003.25;5013505;28;20054;-76
2022/09/21 00:31:08;;;;;;;10.95;3.50;;;;;;;7.27;84.85;96994.91;5013140;28;20049;-76
2022/09/21 00:33:34;;;;;;;10.88;3.45;;;;;;;7.19;84.30;97000.91;5013019;28;20046;-76
2022/09/21 00:36:06;;;;;;;12.10;3.70;;;;;;;7.17;84.58;96994.16;5015343;28;20046;-77
2022/09/21 00:38:33;;;;;;;11.90;3.90;;;;;;;7.14;85.02;97000.13;5017980;28;20056;-77
2022/09/21 00:40:59;;;;;;;10.75;3.58;;;;;;;7.14;85.57;96998.22;5018802;28;20141;-76
2022/09/21 00:43:26;;;;;;;11.27;3.70;;;;;;;7.15;85.53;96999.03;5018090;28;20493;-76
2022/09/21 00:45:59;;;;;;;7.45;2.90;;;;;;;7.14;85.74;97005.53;5018794;28;20056;-77
2022/09/21 00:48:26;;;;;;;11.40;3.35;;;;;;;7.14;85.57;97003.66;5016558;28;20057;-76
2022/09/21 00:50:57;;;;;;;8.77;3.25;;;;;;;7.13;85.39;97001.22;5017597;28;20060;-77
2022/09/21 00:53:24;;;;;;;14.70;3.92;;;;;;;7.11;85.40;96998.81;5015226;28;20054;-76
2022/09/21 00:55:55;;;;;;;10.02;3.47;;;;;;;7.01;85.74;96999.66;5015196;28;20046;-77
2022/09/21 00:58:26;;;;;;;10.88;3.45;;;;;;;7.00;86.08;96997.25;5014300;28;20061;-76
2022/09/21 01:00:53;;;;;;;12.48;3.92;;;;;;;6.95;86.66;97000.78;5014016;28;20505;-76
2022/09/21 01:03:21;;;;;;;14.30;3.72;;;;;;;6.96;86.63;97004.31;5012915;28;20046;-76
2022/09/21 01:05:48;;;;;;;10.60;3.35;;;;;;;6.94;86.59;96996.47;5013692;28;20065;-76
2022/09/21 01:08:16;;;;;;;12.00;3.47;;;;;;;6.92;86.70;96992.41;5015967;28;20053;-76
2022/09/21 01:11:07;;;;;;;7.63;2.63;;;;;;;6.91;86.63;96997.00;5017537;28;20134;-76
2022/09/21 01:13:46;;;;;;;12.05;3.40;;;;;;;6.92;86.65;96995.91;5016857;28;20065;-76
2022/09/21 01:16:15;;;;;;;14.98;3.95;;;;;;;6.91;86.18;96997.00;5016993;28;20053;-76
2022/09/21 01:18:50;;;;;;;14.82;3.45;;;;;;;6.91;86.67;96997.00;5017858;28;20057;-77
2022/09/21 01:21:22;;;;;;;13.48;3.72;;;;;;;6.89;86.82;96999.19;5016833;28;20050;-77
2022/09/21 01:24:13;;;;;;;11.35;3.22;;;;;;;6.91;87.18;96990.78;5016258;28;20531;-76
2022/09/21 01:26:58;;;;;;;16.52;3.75;;;;;;;6.77;86.48;96994.09;5017208;28;20052;-76
2022/09/21 01:29:32;;;;;;;11.48;3.00;;;;;;;6.81;86.25;96997.06;5016678;28;20057;-76
2022/09/21 01:32:06;;;;;;;14.35;3.72;;;;;;;6.80;86.38;96995.44;5016225;28;20124;-76
2022/09/21 01:34:37;;;;;;;10.32;3.22;;;;;;;6.82;86.51;96997.88;5014914;28;20046;-76
2022/09/21 01:37:10;;;;;;;11.50;3.40;;;;;;;6.86;86.61;96999.75;5014978;28;20112;-76
2022/09/21 01:39:40;;;;;;;12.43;3.30;;;;;;;6.75;86.35;97000.88;5015246;28;20056;-76
2022/09/21 01:42:08;;;;;;;14.02;3.92;;;;;;;6.76;86.59;96999.78;5014931;28;20057;-77
2022/09/21 01:44:40;;;;;;;10.45;3.10;;;;;;;6.77;86.61;96999.50;4995337;28;20064;-78
2022/09/21 01:47:11;;;;;;;12.48;3.25;;;;;;;6.76;86.46;96999.78;4995891;28;20064;-78
2022/09/21 01:49:41;;;;;;;10.82;3.03;;;;;;;6.72;86.57;96994.09;5006121;28;20140;-77
2022/09/21 01:52:14;;;;;;;12.25;3.25;;;;;;;6.71;86.67;96991.69;5014585;28;20053;-78
2022/09/21 01:54:43;;;;;;;;;;;;;;;6.66;86.35;97005.25;5015430;28;20058;-76
2022/09/21 01:57:16;;;;;;;13.63;3.58;;;;;;;6.68;86.15;96986.81;4997398;28;19922;-76
2022/09/21 01:59:50;;;;;;;11.50;3.10;;;;;;;6.64;85.89;97002.00;4998097;28;20046;-75
2022/09/21 02:02:22;;;;;;;12.02;3.25;;;;;;;6.61;86.18;97002.56;5014101;28;20042;-76
2022/09/21 02:04:49;;;;;;;11.13;3.13;;;;;;;6.61;86.10;96997.13;5014703;28;20493;-76
2022/09/21 02:07:16;;;;;;;19.92;4.20;;;;;;;6.60;86.08;97000.94;5014284;28;20533;-76
2022/09/21 02:09:43;;;;;;;12.63;3.25;;;;;;;6.59;86.04;96999.31;5014267;28;20505;-76
2022/09/21 02:12:10;;;;;;;13.77;3.22;;;;;;;6.54;86.35;96998.25;5013976;28;20049;-75
2022/09/21 02:14:38;;;;;;;15.05;3.20;;;;;;;6.56;86.27;97000.69;5014642;28;20045;-76
2022/09/21 02:17:23;;;;;;;12.07;3.53;;;;;;;6.52;86.85;97005.00;5014484;28;20072;-76
2022/09/21 02:19:55;;;;;;;11.90;3.78;;;;;;;6.54;86.50;96995.53;5016558;28;20046;-76
2022/09/21 02:22:32;;;;;;;11.45;3.33;;;;;;;6.53;86.36;96996.63;5013933;28;20053;-76
2022/09/21 02:25:07;;;;;;;13.65;3.90;;;;;;;6.51;86.72;97001.50;5014512;28;20482;-75
2022/09/21 02:27:38;;;;;;;10.52;3.42;;;;;;;6.48;86.47;96999.34;5014775;28;20049;-78
2022/09/21 02:30:09;;;;;;;10.77;3.35;;;;;;;6.46;86.83;96995.28;5014684;28;20583;-77
2022/09/21 02:32:48;;;;;;;6.93;2.53;;;;;;;6.46;86.80;97001.50;5015612;28;20050;-78
2022/09/21 02:35:25;;;;;;;6.25;2.83;;;;;;;6.48;86.18;97003.97;5015671;28;20500;-78
2022/09/21 02:37:59;;;;;;;6.82;2.58;;;;;;;6.49;86.01;97002.88;5015568;28;20053;-78
2022/09/21 02:40:35;;;;;;;8.38;2.70;;;;;;;6.49;85.94;97009.09;5015429;28;20132;-78
2022/09/21 02:43:05;;;;;;;8.50;3.30;;;;;;;6.44;86.45;97008.31;5017173;28;20053;-77
2022/09/21 02:45:37;;;;;;;11.65;3.60;;;;;;;6.46;86.60;97009.63;5017195;28;20046;-78
2022/09/21 02:48:11;;;;;;;7.97;3.00;;;;;;;6.43;86.75;97007.50;5017555;28;20056;-77
2022/09/21 02:50:44;;;;;;;10.23;3.58;;;;;;;6.41;86.83;97011.53;5021753;28;20046;-77
2022/09/21 02:53:13;;;;;;;6.28;2.88;;;;;;;6.36;86.37;97008.84;5021418;28;20050;-76
2022/09/21 02:55:40;;;;;;;10.75;3.58;;;;;;;6.34;86.33;97006.44;5021506;28;20048;-77
2022/09/21 02:58:12;;;;;;;6.93;3.10;;;;;;;6.35;86.20;97004.53;5019100;28;20046;-77
2022/09/21 03:00:44;;;;;;;9.57;3.45;;;;;;;6.35;85.75;97008.03;5019418;28;20064;-77
2022/09/21 03:03:17;;;;;;;10.82;2.78;;;;;;;6.34;85.95;97006.44;5015143;28;20045;-78
2022/09/21 03:05:44;;;;;;;9.40;2.93;;;;;;;6.36;86.20;97006.16;5013814;28;20092;-77
2022/09/21 03:08:11;;;;;;;11.32;3.72;;;;;;;6.30;86.52;97002.66;5013158;28;21043;-78
2022/09/21 03:10:38;;;;;;;10.45;3.55;;;;;;;6.30;86.29;97008.06;5013931;28;20045;-76
2022/09/21 03:13:05;;;;;;;11.13;3.58;;;;;;;6.25;86.55;97014.28;5014268;28;20682;-75
2022/09/21 03:15:31;;;;;;;9.55;3.47;;;;;;;6.27;86.54;97016.72;5015204;28;20053;-78
2022/09/21 03:17:58;;;;;;;8.95;3.08;;;;;;;6.27;86.11;97014.03;5018610;28;20041;-77
2022/09/21 03:20:25;;;;;;;10.70;3.70;;;;;;;6.24;86.28;97014.56;5025949;28;20068;-77
2022/09/21 03:22:55;;;;;;;8.85;3.10;;;;;;;6.24;86.10;97014.56;5026150;28;20057;-77
2022/09/21 03:25:21;;;;;;;8.25;3.65;;;;;;;6.22;85.50;97016.75;5027054;28;20042;-77
2022/09/21 03:27:52;;;;;;;9.68;3.50;;;;;;;6.18;85.87;97021.06;5026205;28;20056;-76
2022/09/21 03:30:19;;;;;;;12.57;3.85;;;;;;;6.16;86.06;97018.66;5025494;28;20050;-77
2022/09/21 03:32:46;;;;;;;9.95;3.17;;;;;;;6.06;86.07;97024.06;5021333;28;20052;-78
2022/09/21 03:35:12;;;;;;;13.75;3.97;;;;;;;6.04;85.99;97020.81;5013453;28;20482;-79
2022/09/21 03:37:40;;;;;;;9.05;3.15;;;;;;;6.06;85.57;97020.56;5014216;28;20050;-78
2022/09/21 03:40:08;;;;;;;11.77;3.70;;;;;;;6.07;85.57;97022.19;5017914;28;20050;-77
2022/09/21 03:42:34;;;;;;;13.90;3.78;;;;;;;6.06;85.95;97017.84;5013328;28;20053;-75
2022/09/21 03:45:01;;;;;;;10.23;3.30;;;;;;;6.04;85.58;97010.00;4996184;28;20058;-76
2022/09/21 03:47:28;;;;;;;15.52;4.10;;;;;;;6.00;85.72;97015.16;5012717;28;20417;-76
2022/09/21 03:49:54;;;;;;;11.82;3.55;;;;;;;6.00;85.74;97014.31;5016524;28;20050;-76
2022/09/21 03:52:21;;;;;;;12.35;3.00;;;;;;;6.06;85.99;97017.84;5017032;28;20050;-77
2022/09/21 03:54:49;;;;;;;10.27;3.10;;;;;;;6.06;86.28;97007.03;5016553;28;20126;-77
2022/09/21 03:57:16;;;;;;;8.20;3.17;;;;;;;6.08;86.03;97016.50;5017097;28;20050;-76
2022/09/21 03:59:42;;;;;;;8.98;2.90;;;;;;;6.06;86.30;97015.16;5016154;28;20046;-76
2022/09/21 04:02:09;;;;;;;10.80;3.28;;;;;;;6.06;86.21;97017.84;5016445;28;20053;-76
2022/09/21 04:04:35;;;;;;;12.43;3.30;;;;;;;6.02;86.61;97017.59;5015089;28;20417;-77
2022/09/21 04:07:02;;;;;;;17.17;4.45;;;;;;;5.97;86.36;97021.09;5012943;28;20073;-77
2022/09/21 04:09:28;;;;;;;11.27;3.45;;;;;;;5.91;86.11;97016.78;5012924;28;20046;-77
2022/09/21 04:11:56;;;;;;;10.07;3.58;;;;;;;5.71;85.81;97024.88;5012866;28;20057;-77
2022/09/21 04:14:23;;;;;;;14.20;3.72;;;;;;;5.66;85.75;97022.97;5012408;28;20042;-77
2022/09/21 04:16:50;;;;;;;15.82;3.55;;;;;;;5.65;85.88;97023.25;5012870;28;20485;-76
2022/09/21 04:19:17;;;;;;;13.88;3.47;;;;;;;5.70;85.70;97020.56;5015200;28;20054;-77
2022/09/21 04:21:44;;;;;;;12.38;3.15;;;;;;;5.73;85.78;97028.09;5014882;28;20053;-77
2022/09/21 04:24:10;;;;;;;14.60;3.78;;;;;;;5.75;85.86;97024.06;5014904;28;20050;-76
2022/09/21 04:26:37;;;;;;;8.35;3.33;;;;;;;5.74;86.01;97027.84;5016612;28;20061;-77
2022/09/21 04:29:05;;;;;;;8.75;3.10;;;;;;;5.77;85.80;97026.47;5015559;28;20401;-76
2022/09/21 04:31:35;;;;;;;10.32;3.25;;;;;;;5.75;85.45;97023.25;5015781;28;20049;-77
2022/09/21 04:34:01;;;;;;;8.20;2.90;;;;;;;5.69;85.39;97024.31;5014873;28;20481;-76
2022/09/21 04:36:31;;;;;;;14.27;3.63;;;;;;;5.65;85.76;97025.94;4997600;28;20050;-76
2022/09/21 04:38:58;;;;;;;13.15;3.53;;;;;;;5.58;85.88;97033.50;4998653;28;20054;-76
2022/09/21 04:41:24;;;;;;;10.45;3.17;;;;;;;5.57;85.62;97027.28;5015163;28;20042;-76
2022/09/21 04:43:50;;;;;;;7.75;2.45;;;;;;;5.61;85.82;97038.38;5019371;28;20050;-76
2022/09/21 04:46:20;;;;;;;12.20;3.20;;;;;;;5.53;85.98;97038.88;5019618;28;20050;-76
2022/09/21 04:48:50;;;;;;;18.75;3.60;;;;;;;5.27;86.03;97036.16;5020442;28;20050;-78
2022/09/21 04:51:17;;;;;;;11.80;3.40;;;;;;;5.18;86.36;97032.38;5019048;28;20050;-75
2022/09/21 04:53:44;;;;;;;12.98;3.10;;;;;;;5.22;86.82;97036.97;5018864;28;20070;-75
2022/09/21 04:56:14;;;;;;;11.55;3.65;;;;;;;5.13;86.89;97043.16;5018784;28;20481;-77
2022/09/21 04:58:41;;;;;;;13.27;3.40;;;;;;;5.21;86.66;97042.63;5018158;28;20061;-76
2022/09/21 05:01:07;;;;;;;13.32;3.20;;;;;;;5.24;86.92;97051.00;5017829;28;20046;-75
2022/09/21 05:03:39;;;;;;;10.48;3.00;;;;;;;5.31;86.82;97050.75;5016803;28;20058;-76
2022/09/21 05:06:06;;;;;;;8.05;2.78;;;;;;;5.30;86.56;97059.94;5017077;28;20164;-75
2022/09/21 05:11:18;;;;;;;8.68;3.10;;;;;;;5.44;87.25;97066.44;5016560;28;20417;-75
2022/09/21 05:13:45;;;;;;;11.25;3.17;;;;;;;5.48;87.12;97064.84;5016514;28;20049;-75
2022/09/21 05:16:12;;;;;;;12.95;3.05;;;;;;;5.54;87.13;97075.66;5016466;28;20058;-76
2022/09/21 05:18:40;;;;;;;15.10;3.67;;;;;;;5.56;87.18;97073.47;5016927;28;20046;-75
2022/09/21 05:21:07;;;;;;;13.05;3.50;;;;;;;5.55;87.25;97071.88;5017224;28;20104;-75
2022/09/21 05:23:36;;;;;;;12.80;3.70;;;;;;;5.55;87.23;97079.97;5015225;28;20169;-75
2022/09/21 05:26:04;;;;;;;8.65;3.03;;;;;;;5.56;87.30;97079.69;5015713;28;20045;-75
2022/09/21 05:28:31;;;;;;;14.95;4.28;;;;;;;5.59;87.10;97083.78;5014814;28;20056;-75
2022/09/21 05:31:02;;;;;;;9.13;3.40;;;;;;;5.66;87.19;97078.91;5015280;28;20403;-76
2022/09/21 05:33:33;;;;;;;8.55;3.03;;;;;;;5.68;86.35;97084.84;5014726;28;20042;-75
2022/09/21 05:36:15;;;;;;;8.55;3.28;;;;;;;5.68;86.33;97084.84;5015008;28;20050;-75
2022/09/21 05:38:42;;;;;;;10.55;3.30;;;;;;;5.73;85.98;97090.25;5014588;28;20410;-75
2022/09/21 05:41:09;;;;;;;13.27;3.38;;;;;;;5.71;85.99;97089.72;4997365;28;20046;-76
2022/09/21 05:43:36;;;;;;;9.57;3.22;;;;;;;5.64;86.21;97091.88;5015106;28;20046;-76
2022/09/21 05:46:13;;;;;;;9.63;3.22;;;;;;;5.70;86.75;97096.22;5015595;28;20401;-76
2022/09/21 05:48:42;;;;;;;15.18;3.85;;;;;;;5.79;87.12;97104.56;5014865;28;20042;-74
2022/09/21 05:51:21;;;;;;;8.50;3.10;;;;;;;5.80;87.04;97098.94;5014895;28;20053;-75
2022/09/21 05:53:55;;;;;;;8.57;2.92;;;;;;;5.81;87.23;97092.44;5014565;28;20050;-75
2022/09/21 05:56:34;;;;;;;13.82;4.00;;;;;;;5.88;87.64;97092.97;5014785;28;20046;-77
2022/09/21 05:59:12;;;;;;;11.43;3.67;;;;;;;5.95;87.66;97093.56;5014547;28;20050;-74
2022/09/21 06:01:50;;;;;;;12.57;3.70;;;;;;;6.04;87.91;97095.72;5014781;28;20042;-77
2022/09/21 06:04:17;;;;;;;12.35;4.10;;;;;;;6.10;88.07;97103.53;5014504;28;20405;-76
2022/09/21 06:06:45;;;;;;;8.68;3.60;;;;;;;6.20;88.75;97094.63;5014682;28;20046;-76
2022/09/21 06:09:12;;;;;;;10.45;3.63;;;;;;;6.28;88.39;97096.78;5014556;28;20042;-76
2022/09/21 06:11:38;;;;;;;12.65;3.88;;;;;;;6.31;88.04;97096.22;5014584;28;20053;-75
2022/09/21 06:14:07;;;;;;;11.32;3.55;;;;;;;6.37;88.21;97095.16;5014420;28;20085;-74
2022/09/21 06:16:37;;;;;;;10.43;3.78;;;;;;;6.43;88.05;97096.78;5014622;28;20046;-74
2022/09/21 06:19:04;;;;;;;11.52;3.65;;;;;;;6.45;87.71;97091.88;5014230;28;20101;-75
2022/09/21 06:21:33;;;;;;;12.95;4.40;;;;;;;6.50;87.66;97094.59;5013534;28;20045;-77
2022/09/21 06:24:02;;;;;;;10.15;3.88;;;;;;;6.54;87.74;97101.06;5014143;28;20042;-74
2022/09/21 06:26:28;;;;;;;14.40;5.00;;;;;;;6.62;88.35;97101.59;5013689;28;20061;-75
2022/09/21 06:28:55;;;;;;;13.52;4.60;;;;;;;6.70;88.72;97107.25;5013747;28;20045;-75
2022/09/21 06:31:22;;;;;;;17.17;5.95;;;;;;;6.70;89.14;97109.16;5013578;28;20512;-75
2022/09/21 06:33:48;;;;;;;11.73;4.80;;;;;;;6.86;89.96;97104.50;5013539;28;20045;-75
2022/09/21 06:36:16;;;;;;;16.33;5.40;;;;;;;6.97;89.88;97111.50;5013805;28;20413;-76
2022/09/21 06:38:43;;;;;;;20.50;6.45;;;;;;;7.12;89.75;97110.66;5013312;28;20054;-75
2022/09/21 06:41:11;;;;;;;20.00;6.75;;;;;;;7.24;89.76;97105.72;5011025;28;20045;-77
2022/09/21 06:43:37;;;;;;;20.20;6.25;;;;;;;7.32;89.48;97105.16;5012370;28;20057;-74
2022/09/21 06:46:04;;;;;;;23.63;6.43;;;;;;;7.23;89.07;97101.38;5032569;28;20053;-75
2022/09/21 06:48:33;;;;;;;19.30;6.85;;;;;;;7.35;88.98;97104.56;5032660;28;20049;-75
2022/09/21 06:51:00;;;;;;;14.27;5.70;;;;;;;7.50;89.15;97103.69;5029497;28;20042;-75
2022/09/21 06:53:27;;;;;;;16.95;5.60;;;;;;;7.53;88.25;97103.94;5017111;28;20054;-77
2022/09/21 06:55:59;;;;;;;16.10;5.68;;;;;;;7.44;88.72;97107.53;5014905;28;20555;-76
2022/09/21 06:58:29;;;;;;;17.23;6.40;;;;;;;7.72;88.37;97106.00;5015111;28;20050;-77
2022/09/21 07:00:56;;;;;;;22.52;7.40;;;;;;;8.21;87.95;97111.34;4996631;28;20057;-76
2022/09/21 07:03:22;;;;;;;17.50;6.50;;;;;;;9.31;83.43;97106.16;5005726;28;20140;-75
2022/09/21 07:05:50;;;;;;;14.65;5.35;;;;;;;10.49;77.89;97103.31;4992889;28;20057;-75
2022/09/21 07:08:16;;;;;;;15.50;5.70;;;;;;;11.35;70.33;97109.03;5001860;28;20065;-75
2022/09/21 07:10:43;;;;;;;11.20;4.82;;;;;;;11.86;67.23;97107.19;5012929;28;20452;-77
2022/09/21 07:13:09;;;;;;;12.82;4.50;;;;;;;13.33;63.57;97113.56;5014164;28;20409;-78
2022/09/21 07:15:38;;;;;;;12.13;4.65;;;;;;;14.19;59.96;97107.38;5014958;28;20054;-78
2022/09/21 07:18:11;;;;;;;10.52;4.57;;;;;;;14.90;58.00;97106.19;5015388;28;20096;-77
2022/09/21 07:20:38;;;;;;;16.67;5.82;;;;;;;15.72;55.51;97107.59;5014329;28;20050;-76
2022/09/21 07:23:10;;;;;;;9.90;4.15;;;;;;;16.08;54.17;97114.47;5013426;28;20457;-76
2022/09/21 07:25:36;;;;;;;9.13;4.80;;;;;;;16.34;52.21;97111.47;5013489;28;20136;-75
2022/09/21 07:28:03;;;;;;;9.82;4.30;;;;;;;16.44;52.30;97120.16;5012856;28;20049;-77
2022/09/21 07:30:29;;;;;;;9.48;4.00;;;;;;;16.70;52.06;97116.31;5025194;28;20045;-75
2022/09/21 07:32:57;;;;;;;12.00;3.97;;;;;;;16.55;51.24;97125.19;5013473;28;20050;-74
2022/09/21 07:35:24;;;;;;;13.40;4.78;;;;;;;16.74;52.77;97121.97;5013484;28;20046;-75
2022/09/21 07:37:51;;;;;;;12.77;3.88;;;;;;;16.50;51.11;97118.00;5014079;28;20137;-74
2022/09/21 07:40:18;;;;;;;16.65;4.53;;;;;;;16.41;51.84;97114.50;5012946;28;20057;-74
2022/09/21 07:42:44;;;;;;;9.18;3.17;;;;;;;16.39;54.34;97117.59;5015900;28;20478;-75
2022/09/21 07:45:11;;;;;;;11.07;3.50;;;;;;;16.35;55.06;97113.91;5015382;28;20046;-76
2022/09/21 07:47:38;;;;;;;10.40;3.53;;;;;;;15.93;55.49;97121.34;5015812;28;20413;-76
2022/09/21 07:50:06;;;;;;;10.50;3.65;;;;;;;15.21;54.09;97116.88;5018644;28;20045;-75
2022/09/21 07:52:33;;;;;;;12.65;4.03;;;;;;;15.40;57.00;97120.81;5016102;28;20390;-76
2022/09/21 07:55:00;;;;;;;11.30;3.65;;;;;;;15.49;56.15;97122.72;5018408;28;20108;-76
2022/09/21 08:00:12;;;;;;;11.27;3.65;;;;;;;15.05;56.21;97119.34;5017870;28;20061;-76
2022/09/21 08:02:39;;;;;;;11.52;3.30;;;;;;;14.65;56.92;97127.03;5017037;28;20096;-78
2022/09/21 08:05:08;;;;;;;8.77;2.92;;;;;;;14.26;57.71;97117.88;5014530;28;20050;-76
2022/09/21 08:07:34;;;;;;;7.18;2.50;;;;;;;13.98;58.03;97126.38;5014465;28;20046;-78
2022/09/21 08:10:02;;;;;;;9.40;2.80;;;;;;;14.03;60.65;97123.50;5015541;28;20046;-78
2022/09/21 08:12:28;;;;;;;10.70;2.88;;;;;;;14.11;59.03;97119.16;5016481;28;20053;-80
2022/09/21 08:14:55;;;;;;;9.80;2.65;;;;;;;14.04;57.70;97127.03;5016688;28;20497;-79
2022/09/21 08:17:23;;;;;;;8.77;2.97;;;;;;;13.86;58.76;97122.69;5016037;28;20060;-78
2022/09/21 08:19:49;;;;;;;10.02;3.00;;;;;;;13.83;60.14;97121.38;5017068;28;20046;-79
2022/09/21 08:22:17;;;;;;;7.47;2.65;;;;;;;13.59;58.61;97124.56;5016006;28;20042;-76
2022/09/21 08:24:44;;;;;;;7.72;2.35;;;;;;;13.63;60.17;97124.75;5013693;28;20137;-77
2022/09/21 08:27:12;;;;;;;9.27;2.90;;;;;;;13.75;58.46;97131.19;5012954;28;20053;-77
2022/09/21 08:29:39;;;;;;;9.55;2.97;;;;;;;13.63;59.07;97128.28;5013274;28;20054;-80
2022/09/21 08:32:06;;;;;;;10.48;2.88;;;;;;;13.63;59.88;97131.03;5012867;28;20038;-79
2022/09/21 08:34:33;;;;;;;8.43;2.60;;;;;;;13.71;60.39;97141.16;5012406;28;20145;-76
2022/09/21 08:36:59;;;;;;;6.78;2.30;;;;;;;13.29;59.76;97140.72;5012740;28;20056;-75
2022/09/21 08:39:27;;;;;;;10.95;3.20;;;;;;;13.53;60.90;97137.59;5011750;28;20046;-75
2022/09/21 08:42:14;;;;;;;6.40;2.47;;;;;;;13.76;59.36;97129.25;5011870;28;20452;-75
2022/09/21 08:44:45;;;;;;;8.23;2.70;;;;;;;13.78;61.47;97133.31;5011481;28;20042;-77
2022/09/21 08:47:15;;;;;;;17.02;4.22;;;;;;;13.85;61.57;97141.03;5011813;28;20053;-76
2022/09/21 08:49:47;;;;;;;8.05;2.67;;;;;;;13.85;60.17;97138.31;5014150;28;20057;-76
2022/09/21 08:52:17;;;;;;;9.55;2.53;;;;;;;13.78;60.32;97147.00;5011719;28;20046;-75
2022/09/21 08:54:52;;;;;;;7.50;2.28;;;;;;;13.67;60.38;97142.91;5011761;28;20045;-75
2022/09/21 08:57:20;;;;;;;9.25;2.30;;;;;;;13.61;59.28;97149.66;5012097;28;20142;-75
2022/09/21 08:59:49;;;;;;;8.13;2.42;;;;;;;13.58;60.88;97144.84;5011388;28;20076;-75
2022/09/21 09:02:42;;;;;;;13.77;3.25;;;;;;;13.61;58.88;97144.19;5010731;28;20114;-76
2022/09/21 09:05:23;;;;;;;12.38;2.85;;;;;;;13.51;59.85;97136.28;5011269;28;20141;-76
2022/09/21 09:08:12;;;;;;;11.02;2.40;;;;;;;13.49;59.74;97146.75;5011638;28;20073;-75
2022/09/21 09:10:49;;;;;;;12.98;3.22;;;;;;;13.55;61.27;97137.25;5011521;28;20053;-75
2022/09/21 09:13:52;;;;;;;13.55;3.05;;;;;;;13.49;59.90;97152.22;5011242;28;20053;-76
2022/09/21 09:16:28;;;;;;;12.43;3.00;;;;;;;13.40;60.40;97137.69;5010980;28;20050;-76
2022/09/21 09:18:59;;;;;;;12.15;2.75;;;;;;;13.34;60.66;97139.78;5013525;28;20042;-75
2022/09/21 09:21:33;;;;;;;9.90;2.53;;;;;;;13.09;58.52;97135.78;5011651;28;20042;-75
2022/09/21 09:24:02;;;;;;;;;;;;;;;13.05;59.84;97137.56;5012203;28;20485;-80
2022/09/21 09:26:41;;;;;;;11.82;2.33;;;;;;;12.96;58.34;97136.69;5010977;28;19921;-76
2022/09/21 09:29:16;;;;;;;13.32;2.85;;;;;;;13.00;58.44;97127.56;5013587;28;20489;-76
2022/09/21 09:31:44;;;;;;;7.82;2.10;;;;;;;13.26;60.69;97130.44;5014817;28;20064;-76
2022/09/21 09:34:16;;;;;;;11.00;2.75;;;;;;;13.21;60.77;97124.28;5015004;28;20046;-76
2022/09/21 09:36:46;;;;;;;9.88;2.45;;;;;;;13.26;62.19;97122.22;5014434;28;20050;-77
2022/09/21 09:39:15;;;;;;;12.55;2.83;;;;;;;13.24;61.23;97118.97;5015170;28;20061;-76
2022/09/21 09:42:01;;;;;;;10.57;3.05;;;;;;;13.03;61.29;97118.69;5014813;28;20401;-78
2022/09/21 09:44:45;;;;;;;10.65;2.47;;;;;;;13.01;61.29;97125.63;5015033;28;20049;-74
2022/09/21 09:47:25;;;;;;;9.75;2.50;;;;;;;13.03;60.69;97126.09;5013712;28;20064;-75
2022/09/21 09:50:01;;;;;;;7.53;1.98;;;;;;;13.19;61.44;97115.56;5016402;28;20490;-76
2022/09/21 09:52:28;;;;;;;10.30;2.40;;;;;;;13.34;60.94;97117.09;5014087;28;20046;-75
2022/09/21 09:54:55;;;;;;;16.08;2.65;;;;;;;13.62;59.95;97112.97;5014269;28;20060;-75
2022/09/21 09:57:29;;;;;;;12.55;2.42;;;;;;;13.82;58.85;97106.06;5013906;28;20453;-77
2022/09/21 10:00:00;;;;;;;10.40;2.25;;;;;;;13.97;58.22;97107.53;5014370;28;20409;-76
2022/09/21 10:02:28;;;;;;;8.63;2.08;;;;;;;13.83;58.22;97104.94;5013823;28;20050;-78
2022/09/21 10:05:02;;;;;;;7.65;1.90;;;;;;;13.73;59.72;97103.34;5014315;28;20045;-75
2022/09/21 10:07:40;;;;;;;9.10;2.00;;;;;;;13.51;59.79;97100.72;5015118;28;20233;-76
2022/09/21 10:10:33;;;;;;;12.30;2.42;;;;;;;13.64;59.13;97099.78;5015336;28;20408;-75
2022/09/21 10:13:13;;;;;;;8.48;1.90;;;;;;;13.86;59.07;97095.31;5014736;28;20049;-75
2022/09/21 10:15:43;;;;;;;7.80;1.73;;;;;;;14.03;58.86;97089.81;5016229;28;20050;-79
2022/09/21 10:18:18;;;;;;;16.50;3.00;;;;;;;14.20;56.55;97089.84;5017080;28;20116;-77
2022/09/21 10:20:55;;;;;;;8.23;1.45;;;;;;;14.36;57.38;97087.41;5016720;28;20045;-75
2022/09/21 10:23:22;;;;;;;16.52;2.80;;;;;;;14.35;56.37;97083.88;5014312;28;20501;-75
2022/09/21 10:25:58;;;;;;;15.93;3.10;;;;;;;14.59;55.46;97085.28;5014647;28;20047;-76
2022/09/21 10:28:27;;;;;;;9.82;2.15;;;;;;;14.67;56.56;97081.75;5034109;28;20064;-74
2022/09/21 10:31:17;;;;;;;7.65;1.63;;;;;;;14.83;55.04;97074.59;5034700;28;20048;-77
2022/09/21 10:33:50;;;;;;;9.20;1.83;;;;;;;14.90;54.72;97071.34;5017461;28;20061;-74
2022/09/21 10:36:29;;;;;;;15.85;2.75;;;;;;;15.01;54.65;97069.03;5014357;28;20049;-75
2022/09/21 10:38:56;;;;;;;9.98;2.00;;;;;;;14.92;54.45;97076.47;5025109;28;20405;-75
2022/09/21 10:41:23;;;;;;;6.80;1.48;;;;;;;14.50;52.83;97066.13;5017537;28;20042;-75
2022/09/21 10:43:53;;;;;;;5.05;0.93;;;;;;;14.22;50.99;97070.34;5014461;28;20045;-76
2022/09/21 10:46:33;;;;;;;7.45;1.42;;;;;;;14.17;51.88;97063.09;5015185;28;20056;-78
2022/09/21 10:48:59;;;;;;;13.00;2.55;;;;;;;14.17;53.21;97065.03;5016167;28;20045;-76
2022/09/21 10:51:30;;;;;;;7.97;1.63;;;;;;;14.30;53.17;97062.13;5014539;28;20458;-76
2022/09/21 10:53:57;;;;;;;7.55;1.67;;;;;;;14.49;53.31;97061.78;5013413;28;20338;-74
2022/09/21 10:56:25;;;;;;;7.55;1.58;;;;;;;14.63;54.90;97064.31;5014242;28;20052;-75
2022/09/21 10:59:20;;;;;;;9.23;1.83;;;;;;;14.62;52.59;97068.22;5013337;28;20046;-76
2022/09/21 11:01:48;;;;;;;7.05;1.40;;;;;;;14.49;51.85;97064.50;5015156;28;20517;-77
2022/09/21 11:04:22;;;;;;;6.95;1.42;;;;;;;14.31;51.93;97058.25;5013960;28;20046;-76
2022/09/21 11:06:54;;;;;;;6.53;1.38;;;;;;;14.34;52.39;97056.78;5014470;28;20088;-76
2022/09/21 11:09:26;;;;;;;8.25;1.63;;;;;;;14.32;52.05;97059.84;5013125;28;20041;-77
2022/09/21 11:11:59;;;;;;;7.63;1.60;;;;;;;14.46;53.20;97050.63;5014320;28;20045;-78
2022/09/21 11:14:41;;;;;;;8.93;1.83;;;;;;;14.60;53.96;97054.00;5013837;28;20050;-76
2022/09/21 11:17:17;;;;;;;9.05;1.75;;;;;;;14.80;52.92;97052.50;5014103;28;20046;-76
2022/09/21 11:19:51;;;;;;;8.00;1.45;;;;;;;14.67;50.92;97048.84;5015402;28;20137;-78
2022/09/21 11:22:25;;;;;;;9.38;1.80;;;;;;;14.36;50.52;97046.31;5014954;28;20046;-77
2022/09/21 11:25:00;;;;;;;10.18;1.73;;;;;;;14.69;51.80;97052.06;5013772;28;20086;-80
2022/09/21 11:27:34;;;;;;;7.75;1.33;;;;;;;14.74;50.14;97048.34;5009654;28;20481;-79
2022/09/21 11:30:10;;;;;;;9.38;1.77;;;;;;;14.84;49.61;97051.50;5014091;28;20077;-77
2022/09/21 11:32:54;;;;;;;15.18;2.78;;;;;;;15.01;48.56;97052.56;5012544;28;20489;-77
2022/09/21 11:35:40;;;;;;;8.07;1.45;;;;;;;15.19;49.85;97040.41;5007907;28;20046;-77
2022/09/21 11:38:13;;;;;;;9.55;1.70;;;;;;;15.17;45.50;97037.16;5012992;28;20413;-77
2022/09/21 11:41:00;;;;;;;16.38;2.60;;;;;;;15.01;46.52;97042.41;5013305;28;20410;-77
2022/09/21 11:43:40;;;;;;;8.48;1.58;;;;;;;15.12;46.51;97031.88;5012520;28;20105;-76
2022/09/21 11:46:20;;;;;;;10.13;2.15;;;;;;;15.16;48.62;97038.31;5012731;28;20386;-77
2022/09/21 11:49:04;;;;;;;10.18;1.80;;;;;;;15.04;43.83;97036.28;5014895;28;20046;-77
2022/09/21 11:51:43;;;;;;;6.45;1.63;;;;;;;15.09;44.53;97038.03;4992842;28;20046;-76
2022/09/21 11:54:43;;;;;;;11.75;2.17;;;;;;;15.05;44.26;97031.59;5001204;28;20112;-76
2022/09/21 11:57:27;;;;;;;11.45;1.90;;;;;;;15.14;46.77;97026.88;5012648;28;20041;-77